Time;durP1;ratioP1;P1;durP2;ratioP2;P2;SDS_P1;SDS_P2;PMS_P1;PMS_P2;Temp;Humidity;BMP_temperature;BMP_pressure;BME280_temperature;BME280_humidity;BME280_pressure;Samples;Min_cycle;Max_cycle;Signal;HPM_P1;HPM_P2
2022/06/22 00:01:57;;;;;;;7.82;4.50;;;14.30;99.90;;;;;;5034064;28;20537;-75
2022/06/22 00:04:31;;;;;;;9.52;5.45;;;14.30;99.90;;;;;;5036174;28;20084;-75
2022/06/22 00:07:03;;;;;;;9.07;6.30;;;14.30;99.90;;;;;;5037829;28;20052;-76
2022/06/22 00:09:33;;;;;;;9.85;6.25;;;14.20;99.90;;;;;;5051917;28;20060;-75
2022/06/22 00:12:00;;;;;;;8.30;5.10;;;14.10;99.90;;;;;;5054424;28;20079;-75
2022/06/22 00:14:49;;;;;;;9.73;6.53;;;14.00;99.90;;;;;;5034050;28;20044;-77
2022/06/22 00:17:25;;;;;;;11.35;7.82;;;14.00;99.90;;;;;;5050790;28;20053;-75
2022/06/22 00:20:02;;;;;;;14.05;9.90;;;13.90;99.90;;;;;;5037805;28;20049;-76
2022/06/22 00:22:28;;;;;;;16.98;13.07;;;13.90;99.90;;;;;;5032998;28;20060;-75
2022/06/22 00:25:26;;;;;;;9.75;6.35;;;13.70;99.90;;;;;;5051101;28;20041;-75
2022/06/22 00:27:52;;;;;;;9.85;5.60;;;13.60;99.90;;;;;;5010946;28;20110;-76
2022/06/22 00:30:23;;;;;;;8.63;5.38;;;13.50;99.90;;;;;;5034267;28;20131;-75
2022/06/22 00:33:11;;;;;;;7.72;4.95;;;13.60;99.90;;;;;;5033492;28;20048;-75
2022/06/22 00:35:43;;;;;;;8.68;5.20;;;13.60;99.90;;;;;;5033423;28;20080;-75
2022/06/22 00:38:17;;;;;;;8.20;5.13;;;13.60;99.90;;;;;;5016616;28;20045;-75
2022/06/22 00:40:43;;;;;;;8.63;5.50;;;13.60;99.90;;;;;;5026902;28;20110;-75
2022/06/22 00:43:14;;;;;;;11.13;7.57;;;13.70;99.90;;;;;;5033566;28;20053;-75
2022/06/22 00:45:40;;;;;;;8.65;5.45;;;13.70;99.90;;;;;;5027132;28;20053;-75
2022/06/22 00:48:18;;;;;;;8.30;4.82;;;13.60;99.90;;;;;;5020537;28;20048;-76
2022/06/22 00:50:47;;;;;;;9.30;6.30;;;13.50;99.90;;;;;;5034553;28;20037;-75
2022/06/22 00:53:18;;;;;;;8.73;4.85;;;13.40;99.90;;;;;;5034059;28;20048;-75
2022/06/22 00:55:50;;;;;;;9.02;5.18;;;13.40;99.90;;;;;;5034243;28;20163;-75
2022/06/22 00:58:25;;;;;;;8.30;5.10;;;13.40;99.90;;;;;;5049976;28;20048;-76
2022/06/22 01:01:12;;;;;;;8.40;4.68;;;13.40;99.90;;;;;;5034791;28;20407;-75
2022/06/22 01:03:59;;;;;;;8.02;4.63;;;13.30;99.90;;;;;;5052911;28;20045;-75
2022/06/22 01:06:33;;;;;;;6.95;4.95;;;13.40;99.90;;;;;;5053144;28;20585;-75
2022/06/22 01:09:12;;;;;;;7.88;5.10;;;13.30;99.90;;;;;;5032537;28;20495;-77
2022/06/22 01:15:04;;;;;;;8.18;5.50;;;13.30;99.90;;;;;;5033547;28;20117;-76
2022/06/22 01:17:47;;;;;;;8.15;5.00;;;13.30;99.90;;;;;;5039231;28;20453;-77
2022/06/22 01:20:22;;;;;;;8.18;4.93;;;13.30;99.90;;;;;;5033103;28;20049;-75
2022/06/22 01:23:04;;;;;;;9.57;5.10;;;13.30;99.90;;;;;;5047594;28;20045;-75
2022/06/22 01:25:47;;;;;;;8.18;4.97;;;13.30;99.90;;;;;;5050451;28;20112;-74
2022/06/22 01:28:14;;;;;;;6.97;4.68;;;13.30;99.90;;;;;;5032588;28;20041;-74
2022/06/22 01:30:48;;;;;;;12.00;7.95;;;13.30;99.90;;;;;;5033851;28;20441;-75
2022/06/22 01:33:13;;;;;;;7.63;4.70;;;13.20;99.90;;;;;;5032591;28;20072;-75
2022/06/22 01:35:39;;;;;;;7.15;5.05;;;13.10;99.90;;;;;;5033696;28;20392;-75
2022/06/22 01:38:30;;;;;;;6.75;4.70;;;13.10;99.90;;;;;;5036172;28;20502;-75
2022/06/22 01:41:32;;;;;;;17.92;9.40;;;13.10;99.90;;;;;;5036637;28;20055;-74
2022/06/22 01:44:02;;;;;;;11.23;8.48;;;13.10;99.90;;;;;;5036417;28;20056;-75
2022/06/22 01:47:05;;;;;;;8.38;6.13;;;12.90;99.90;;;;;;5038639;28;20061;-75
2022/06/22 01:49:38;;;;;;;8.88;6.32;;;12.90;99.90;;;;;;5057894;28;20525;-74
2022/06/22 01:52:16;;;;;;;8.95;6.18;;;12.90;99.90;;;;;;5052291;28;20048;-75
2022/06/22 01:54:55;;;;;;;8.65;6.32;;;12.90;99.90;;;;;;5036491;28;20045;-74
2022/06/22 01:57:40;;;;;;;8.85;6.85;;;12.90;99.90;;;;;;5033943;28;20049;-75
2022/06/22 02:00:12;;;;;;;7.80;5.80;;;12.90;99.90;;;;;;5041676;28;20545;-74
2022/06/22 02:02:47;;;;;;;8.38;6.10;;;12.80;99.90;;;;;;5037032;28;20432;-78
2022/06/22 02:05:28;;;;;;;7.65;5.90;;;12.80;99.90;;;;;;5053463;28;20057;-74
2022/06/22 02:08:22;;;;;;;8.68;6.68;;;12.70;99.90;;;;;;5043509;28;20053;-75
2022/06/22 02:11:15;;;;;;;9.10;6.68;;;12.70;99.90;;;;;;5027591;28;20056;-74
2022/06/22 02:14:03;;;;;;;7.72;5.75;;;12.70;99.90;;;;;;5035986;28;20044;-74
2022/06/22 02:16:52;;;;;;;8.27;5.70;;;12.60;99.90;;;;;;5035840;28;20064;-74
2022/06/22 02:19:20;;;;;;;8.65;5.57;;;12.60;99.90;;;;;;5040642;28;20048;-74
2022/06/22 02:21:49;;;;;;;7.13;5.57;;;12.60;99.90;;;;;;5030408;28;20048;-74
2022/06/22 02:24:33;;;;;;;8.10;5.35;;;12.60;99.90;;;;;;5033465;28;20100;-74
2022/06/22 02:27:21;;;;;;;8.70;5.90;;;12.60;99.90;;;;;;5052195;28;20136;-74
2022/06/22 02:29:50;;;;;;;8.13;5.88;;;12.50;99.90;;;;;;5057823;28;20102;-74
2022/06/22 02:32:19;;;;;;;8.00;6.40;;;12.50;99.90;;;;;;5034306;28;20144;-74
2022/06/22 02:34:50;;;;;;;8.93;6.03;;;12.50;99.90;;;;;;5038426;28;20471;-75
2022/06/22 02:37:19;;;;;;;8.70;5.90;;;12.40;99.90;;;;;;5053592;28;20124;-74
2022/06/22 02:39:53;;;;;;;9.52;6.20;;;12.50;99.90;;;;;;5035129;28;20061;-75
2022/06/22 02:45:08;;;;;;;8.50;6.07;;;12.40;99.90;;;;;;5057161;28;20083;-74
2022/06/22 02:47:52;;;;;;;7.18;5.30;;;12.40;99.90;;;;;;5052310;28;20051;-74
2022/06/22 02:50:27;;;;;;;8.00;6.30;;;12.30;99.90;;;;;;5037282;28;20099;-75
2022/06/22 02:53:01;;;;;;;8.55;5.78;;;12.30;99.90;;;;;;5034993;28;20049;-73
2022/06/22 02:55:32;;;;;;;10.32;7.70;;;12.30;99.90;;;;;;5050492;28;20057;-79
2022/06/22 02:58:00;;;;;;;10.57;8.03;;;12.20;99.90;;;;;;5034982;28;20045;-75
2022/06/22 03:00:40;;;;;;;9.00;5.47;;;12.20;99.90;;;;;;5038309;28;20088;-73
2022/06/22 03:03:11;;;;;;;9.55;6.90;;;12.10;99.90;;;;;;5034911;28;20063;-74
2022/06/22 03:05:39;;;;;;;9.50;6.60;;;12.00;99.90;;;;;;5025918;28;20051;-73
2022/06/22 03:08:06;;;;;;;9.80;6.80;;;12.00;99.90;;;;;;5037434;28;20467;-73
2022/06/22 03:10:44;;;;;;;11.18;8.15;;;11.90;99.90;;;;;;5033752;28;20044;-73
2022/06/22 03:13:17;;;;;;;7.95;5.45;;;11.80;99.90;;;;;;5055628;28;20084;-75
2022/06/22 03:15:44;;;;;;;11.60;7.65;;;11.80;99.90;;;;;;5051833;28;20128;-73
2022/06/22 03:18:16;;;;;;;9.55;6.95;;;11.80;99.90;;;;;;5036311;28;20110;-74
2022/06/22 03:20:53;;;;;;;10.10;6.93;;;11.70;99.90;;;;;;5053424;28;20057;-73
2022/06/22 03:23:29;;;;;;;9.20;6.53;;;11.60;99.90;;;;;;5036859;28;20045;-73
2022/06/22 03:26:06;;;;;;;7.85;6.32;;;11.60;99.90;;;;;;5037397;28;20045;-73
2022/06/22 03:28:38;;;;;;;9.43;7.28;;;11.60;99.90;;;;;;5033111;28;20044;-73
2022/06/22 03:31:06;;;;;;;;;;;11.60;99.90;;;;;;5037549;28;20067;-73
2022/06/22 03:33:44;;;;;;;9.23;7.03;;;11.40;99.90;;;;;;5052074;28;19931;-73
2022/06/22 03:36:43;;;;;;;54.95;12.70;;;11.30;99.90;;;;;;5034003;28;20036;-79
2022/06/22 03:39:14;;;;;;;34.70;13.60;;;11.20;99.90;;;;;;5032140;28;20060;-73
2022/06/22 03:41:50;;;;;;;30.95;10.88;;;11.00;99.90;;;;;;5035904;28;20041;-80
2022/06/22 03:44:22;;;;;;;92.38;12.57;;;10.80;99.90;;;;;;5034497;28;20116;-73
2022/06/22 03:46:54;;;;;;;26.23;12.68;;;10.70;99.90;;;;;;5051713;28;20048;-73
2022/06/22 03:49:31;;;;;;;16.10;12.57;;;10.60;99.90;;;;;;5036967;28;20558;-72
2022/06/22 03:52:15;;;;;;;19.95;13.52;;;10.50;99.90;;;;;;5031981;28;20060;-73
2022/06/22 03:54:50;;;;;;;22.55;13.45;;;10.50;99.90;;;;;;5049868;28;20472;-76
2022/06/22 03:57:21;;;;;;;22.58;12.90;;;10.50;99.90;;;;;;5033124;28;20049;-72
2022/06/22 03:59:47;;;;;;;38.15;12.23;;;10.50;99.90;;;;;;5036015;28;20128;-73
2022/06/22 04:02:14;;;;;;;37.35;11.93;;;10.50;99.90;;;;;;5007378;28;20073;-74
2022/06/22 04:04:40;;;;;;;51.03;12.23;;;10.50;99.90;;;;;;5034163;28;20118;-74
2022/06/22 04:07:06;;;;;;;67.55;13.15;;;10.50;99.90;;;;;;5050146;28;20418;-73
2022/06/22 04:09:32;;;;;;;46.80;12.00;;;10.50;99.90;;;;;;5031822;28;20089;-73
2022/06/22 04:12:07;;;;;;;40.80;12.90;;;10.50;99.90;;;;;;5023785;28;20510;-74
2022/06/22 04:14:38;;;;;;;26.15;12.55;;;10.60;99.90;;;;;;5030184;28;20447;-72
2022/06/22 04:17:17;;;;;;;32.45;11.70;;;10.60;99.90;;;;;;5020084;28;20041;-72
2022/06/22 04:19:50;;;;;;;26.40;12.52;;;10.70;99.90;;;;;;5035065;28;20049;-73
2022/06/22 04:22:20;;;;;;;19.50;12.43;;;10.90;99.90;;;;;;5044177;28;20472;-73
2022/06/22 04:24:53;;;;;;;21.20;12.48;;;11.00;99.90;;;;;;5034499;28;20061;-73
2022/06/22 04:27:18;;;;;;;13.25;11.40;;;11.10;99.90;;;;;;5029315;28;20049;-73
2022/06/22 04:29:49;;;;;;;18.15;13.25;;;11.10;99.90;;;;;;5031035;28;20096;-73
2022/06/22 04:32:43;;;;;;;19.02;12.55;;;11.20;99.90;;;;;;5029311;28;20049;-74
2022/06/22 04:35:37;;;;;;;16.67;12.43;;;11.30;99.90;;;;;;5029736;28;20063;-73
2022/06/22 04:38:20;;;;;;;18.63;15.60;;;11.40;99.90;;;;;;5035191;28;20949;-77
2022/06/22 04:41:07;;;;;;;19.35;16.88;;;11.40;99.90;;;;;;5014854;28;20050;-74
2022/06/22 04:43:35;;;;;;;22.85;17.98;;;11.50;99.90;;;;;;5034302;28;20053;-73
2022/06/22 04:46:00;;;;;;;21.90;17.65;;;11.40;99.90;;;;;;5030001;28;20057;-73
2022/06/22 04:48:31;;;;;;;23.48;19.05;;;11.50;99.90;;;;;;5032958;28;20106;-74
2022/06/22 04:51:00;;;;;;;23.00;18.35;;;11.50;99.90;;;;;;5031484;28;20451;-73
2022/06/22 04:53:37;;;;;;;23.65;20.50;;;11.60;99.90;;;;;;5028875;28;20435;-74
2022/06/22 04:56:09;;;;;;;22.65;18.23;;;11.70;99.90;;;;;;5029494;28;20041;-73
2022/06/22 04:58:53;;;;;;;17.95;15.35;;;11.80;99.90;;;;;;5028870;28;20065;-74
2022/06/22 05:01:28;;;;;;;19.25;16.52;;;12.40;99.90;;;;;;5034180;28;20041;-74
2022/06/22 05:03:58;;;;;;;16.75;13.30;;;13.80;99.90;;;;;;5020318;28;20128;-74
2022/06/22 05:06:45;;;;;;;14.80;12.68;;;15.00;99.90;;;;;;5032557;28;20395;-75
2022/06/22 05:09:28;;;;;;;15.40;11.80;;;16.10;99.90;;;;;;5029315;28;20068;-74
2022/06/22 05:11:54;;;;;;;14.07;11.40;;;16.70;99.90;;;;;;5035085;28;20133;-74
2022/06/22 05:14:28;;;;;;;15.05;11.68;;;17.30;99.90;;;;;;5035202;28;20077;-75
2022/06/22 05:16:59;;;;;;;15.20;11.63;;;17.80;99.90;;;;;;5033198;28;20585;-75
2022/06/22 05:19:42;;;;;;;12.43;10.23;;;17.60;99.90;;;;;;5043944;28;20408;-79
2022/06/22 05:22:15;;;;;;;15.40;9.93;;;18.30;99.90;;;;;;5032693;28;20049;-75
2022/06/22 05:24:45;;;;;;;13.43;9.40;;;18.90;99.90;;;;;;5019896;28;20099;-76
2022/06/22 05:27:20;;;;;;;12.27;9.45;;;19.40;99.90;;;;;;5035412;28;20282;-77
2022/06/22 05:29:51;;;;;;;11.93;9.00;;;19.70;99.90;;;;;;5050523;28;20076;-75
2022/06/22 05:32:24;;;;;;;11.45;8.90;;;20.40;99.90;;;;;;5031625;28;20056;-77
2022/06/22 05:34:51;;;;;;;13.00;9.75;;;20.40;99.90;;;;;;5037173;28;20037;-76
2022/06/22 05:37:23;;;;;;;11.60;8.73;;;20.80;99.90;;;;;;5031401;28;20045;-76
2022/06/22 05:39:48;;;;;;;17.33;12.15;;;21.10;97.90;;;;;;5032878;28;20076;-76
2022/06/22 05:42:16;;;;;;;13.52;9.85;;;20.40;97.20;;;;;;5032615;28;20119;-78
2022/06/22 05:44:42;;;;;;;11.45;9.13;;;21.30;99.90;;;;;;5047735;28;20056;-77
2022/06/22 05:47:17;;;;;;;13.95;9.88;;;22.50;95.80;;;;;;5037663;28;20108;-77
2022/06/22 05:49:50;;;;;;;10.95;9.40;;;22.50;93.00;;;;;;5040282;28;20049;-77
2022/06/22 05:52:32;;;;;;;14.32;10.57;;;21.80;94.00;;;;;;5033478;28;20046;-77
2022/06/22 05:55:05;;;;;;;13.77;10.20;;;21.70;94.10;;;;;;5037315;28;20057;-77
2022/06/22 05:57:43;;;;;;;13.80;9.32;;;22.20;94.30;;;;;;5042208;28;20139;-78
2022/06/22 06:00:15;;;;;;;14.43;11.15;;;22.30;92.50;;;;;;5040371;28;20106;-77
2022/06/22 06:03:12;;;;;;;11.95;9.50;;;22.40;90.00;;;;;;5037876;28;20033;-78
2022/06/22 06:05:49;;;;;;;15.43;11.07;;;22.60;92.20;;;;;;5033958;28;20480;-76
2022/06/22 06:08:18;;;;;;;11.93;8.50;;;21.70;91.40;;;;;;5041269;28;20063;-78
2022/06/22 06:10:44;;;;;;;12.63;8.75;;;22.20;94.20;;;;;;5055150;28;20056;-77
2022/06/22 06:13:09;;;;;;;11.13;8.20;;;22.80;91.80;;;;;;5040564;28;20472;-78
2022/06/22 06:15:38;;;;;;;12.88;9.10;;;23.20;90.70;;;;;;5039881;28;20048;-77
2022/06/22 06:18:06;;;;;;;11.00;7.45;;;22.70;90.70;;;;;;5057460;28;20480;-79
2022/06/22 06:20:41;;;;;;;12.90;8.40;;;24.10;88.30;;;;;;5031274;28;20045;-78
2022/06/22 06:23:20;;;;;;;12.18;8.10;;;24.30;83.20;;;;;;5034082;28;20045;-78
2022/06/22 06:28:49;;;;;;;11.38;7.50;;;23.30;80.00;;;;;;5054103;28;20061;-78
2022/06/22 06:31:43;;;;;;;11.32;6.25;;;23.60;80.20;;;;;;5054494;28;20122;-78
2022/06/22 06:34:29;;;;;;;11.25;6.90;;;24.70;78.00;;;;;;5052230;28;20060;-78
2022/06/22 06:37:18;;;;;;;11.07;7.75;;;24.50;69.60;;;;;;5039114;28;20060;-77
2022/06/22 06:39:47;;;;;;;8.75;6.15;;;24.20;70.00;;;;;;5054785;28;20059;-79
2022/06/22 06:42:32;;;;;;;9.68;6.75;;;24.30;75.30;;;;;;5059093;28;20041;-78
2022/06/22 06:45:00;;;;;;;11.15;7.28;;;24.40;72.00;;;;;;5025220;28;20049;-79
2022/06/22 06:47:35;;;;;;;10.63;6.55;;;25.40;70.30;;;;;;5038713;28;20052;-80
2022/06/22 06:50:20;;;;;;;14.60;8.25;;;25.40;68.60;;;;;;5037120;28;20132;-79
2022/06/22 06:53:04;;;;;;;14.00;7.25;;;24.40;70.10;;;;;;5044333;28;20049;-77
2022/06/22 06:55:47;;;;;;;11.02;6.40;;;24.70;70.70;;;;;;5049565;28;20041;-79
2022/06/22 06:58:19;;;;;;;10.52;5.85;;;24.80;70.00;;;;;;5033532;28;20061;-83
2022/06/22 07:00:47;;;;;;;9.02;6.47;;;24.70;66.90;;;;;;5038174;28;20041;-77
2022/06/22 07:03:21;;;;;;;11.20;6.22;;;23.80;67.00;;;;;;5062475;28;20070;-80
2022/06/22 07:05:48;;;;;;;7.93;5.28;;;24.10;67.40;;;;;;5039416;28;20379;-79
2022/06/22 07:08:45;;;;;;;8.38;5.40;;;24.20;64.80;;;;;;5042919;28;20621;-80
2022/06/22 07:11:21;;;;;;;8.27;4.60;;;24.10;64.70;;;;;;5044383;28;20174;-77
2022/06/22 07:13:53;;;;;;;8.32;4.97;;;24.30;62.00;;;;;;5040802;28;20045;-76
2022/06/22 07:16:25;;;;;;;9.20;4.93;;;23.60;60.10;;;;;;5026503;28;20045;-79
2022/06/22 07:19:00;;;;;;;6.35;3.20;;;23.60;60.30;;;;;;5064140;28;20045;-79
2022/06/22 07:21:41;;;;;;;7.55;3.60;;;24.20;59.50;;;;;;5044467;28;20098;-80
2022/06/22 07:24:07;;;;;;;7.90;3.53;;;24.60;59.00;;;;;;5056722;28;20044;-77
2022/06/22 07:27:08;;;;;;;6.70;2.95;;;23.80;55.20;;;;;;5039444;28;20338;-79
2022/06/22 07:29:46;;;;;;;7.07;2.70;;;23.70;56.60;;;;;;5044081;28;20049;-80
2022/06/22 07:32:36;;;;;;;5.65;2.33;;;24.10;56.80;;;;;;5069976;28;20040;-79
2022/06/22 07:35:15;;;;;;;6.53;2.47;;;24.20;53.90;;;;;;5049635;28;20048;-77
2022/06/22 07:38:03;;;;;;;7.38;2.65;;;23.60;52.70;;;;;;5035833;28;20388;-78
2022/06/22 07:40:31;;;;;;;8.75;3.40;;;23.30;55.60;;;;;;5021703;28;20033;-78
2022/06/22 07:42:59;;;;;;;8.07;2.90;;;22.70;56.20;;;;;;5047635;28;20134;-79
2022/06/22 07:45:27;;;;;;;8.13;3.08;;;23.60;58.90;;;;;;5041095;28;20048;-78
2022/06/22 07:48:10;;;;;;;6.60;2.80;;;23.30;58.70;;;;;;5036213;28;20052;-78
2022/06/22 07:50:43;;;;;;;6.93;2.80;;;24.70;57.60;;;;;;5035568;28;20123;-78
2022/06/22 07:53:37;;;;;;;7.72;3.03;;;25.30;55.50;;;;;;5042203;28;20045;-77
2022/06/22 07:56:33;;;;;;;6.97;2.70;;;25.30;54.70;;;;;;5053234;28;20063;-79
2022/06/22 07:59:11;;;;;;;7.55;2.50;;;25.40;51.10;;;;;;5066902;28;20586;-79
2022/06/22 08:01:42;;;;;;;6.32;2.63;;;24.80;52.40;;;;;;5047256;28;20044;-79
2022/06/22 08:04:47;;;;;;;6.07;2.70;;;24.60;54.00;;;;;;5041745;28;20064;-77
2022/06/22 08:07:21;;;;;;;7.57;2.50;;;24.20;50.80;;;;;;5022520;28;20061;-77
2022/06/22 08:10:08;;;;;;;5.65;2.33;;;24.50;53.30;;;;;;5033913;28;20068;-77
2022/06/22 08:12:56;;;;;;;7.20;2.70;;;24.90;48.90;;;;;;5035084;28;20439;-75
2022/06/22 08:15:23;;;;;;;9.77;3.17;;;24.70;50.30;;;;;;5053888;28;20503;-76
2022/06/22 08:17:55;;;;;;;6.05;2.45;;;23.70;51.40;;;;;;5034048;28;20135;-75
2022/06/22 08:20:26;;;;;;;6.13;2.80;;;23.80;49.70;;;;;;5031004;28;20063;-78
2022/06/22 08:22:53;;;;;;;8.00;2.88;;;23.90;53.10;;;;;;5021763;28;20072;-76
2022/06/22 08:25:21;;;;;;;7.07;2.97;;;24.20;50.70;;;;;;5032857;28;20063;-79
2022/06/22 08:27:47;;;;;;;6.88;2.70;;;23.90;53.70;;;;;;5017604;28;20095;-78
2022/06/22 08:30:15;;;;;;;9.57;4.40;;;24.00;53.40;;;;;;5043249;28;20049;-78
2022/06/22 08:32:52;;;;;;;7.57;4.07;;;24.50;54.70;;;;;;5052764;28;20097;-77
2022/06/22 08:35:23;;;;;;;7.50;3.80;;;24.70;54.80;;;;;;5060298;28;20053;-77
2022/06/22 08:38:10;;;;;;;7.10;3.65;;;24.80;54.70;;;;;;5034122;28;20045;-76
2022/06/22 08:40:39;;;;;;;7.35;3.30;;;24.60;53.90;;;;;;5037313;28;20053;-77
2022/06/22 08:43:43;;;;;;;7.28;3.30;;;24.40;54.10;;;;;;5052794;28;20045;-76
2022/06/22 08:46:40;;;;;;;8.50;3.40;;;24.90;53.40;;;;;;5051204;28;20064;-78
2022/06/22 08:49:26;;;;;;;7.63;2.97;;;24.70;52.30;;;;;;5055117;28;20050;-75
2022/06/22 08:51:52;;;;;;;7.28;2.90;;;24.80;48.80;;;;;;5071654;28;20048;-77
2022/06/22 08:54:49;;;;;;;7.38;2.90;;;25.00;50.80;;;;;;5071120;28;20040;-78
2022/06/22 08:57:26;;;;;;;5.50;2.53;;;25.30;50.00;;;;;;5054366;28;20055;-77
2022/06/22 09:00:16;;;;;;;6.30;3.00;;;25.80;49.90;;;;;;5072625;28;20049;-77
2022/06/22 09:03:11;;;;;;;6.15;2.70;;;26.10;50.50;;;;;;5034855;28;20049;-78
2022/06/22 09:05:49;;;;;;;8.57;3.10;;;26.20;49.60;;;;;;5034151;28;20057;-76
2022/06/22 09:08:48;;;;;;;6.85;2.67;;;26.30;47.50;;;;;;5034427;28;20395;-78
2022/06/22 09:11:29;;;;;;;5.50;2.40;;;25.60;47.50;;;;;;5040836;28;20049;-76
2022/06/22 09:14:22;;;;;;;6.75;2.70;;;25.80;47.50;;;;;;5066081;28;20048;-76
2022/06/22 09:17:25;;;;;;;7.40;2.88;;;25.70;48.30;;;;;;5052110;28;20132;-75
2022/06/22 09:20:09;;;;;;;6.97;3.00;;;25.90;46.60;;;;;;5051189;28;20053;-75
2022/06/22 09:22:49;;;;;;;7.82;3.30;;;25.50;46.70;;;;;;5065527;28;20068;-77
2022/06/22 09:25:30;;;;;;;8.07;2.80;;;24.80;49.50;;;;;;5046984;28;20105;-77
2022/06/22 09:28:01;;;;;;;6.30;2.25;;;24.50;50.50;;;;;;5031234;28;20063;-76
2022/06/22 09:30:51;;;;;;;5.80;2.30;;;24.90;50.20;;;;;;5034341;28;20049;-77
2022/06/22 09:33:22;;;;;;;8.88;2.80;;;25.30;49.60;;;;;;5052097;28;20045;-78
2022/06/22 09:35:59;;;;;;;;;;;25.20;47.90;;;;;;5034846;28;20376;-77
2022/06/22 09:39:01;;;;;;;6.25;2.20;;;24.90;47.80;;;;;;5053065;28;20375;-75
2022/06/22 09:41:30;;;;;;;;;;;24.90;47.20;;;;;;5048828;28;20533;-76
2022/06/22 09:44:17;;;;;;;7.15;2.33;;;24.90;43.40;;;;;;5041282;28;19921;-77
2022/06/22 09:47:08;;;;;;;5.55;2.20;;;25.30;46.10;;;;;;5032316;28;20045;-77
2022/06/22 09:49:53;;;;;;;6.05;2.30;;;25.30;46.60;;;;;;5047240;28;20052;-76
2022/06/22 09:52:30;;;;;;;7.13;2.42;;;25.70;48.00;;;;;;5063303;28;20387;-77
2022/06/22 09:58:10;;;;;;;6.45;2.25;;;25.40;46.00;;;;;;5048404;28;20480;-77
2022/06/22 10:00:45;;;;;;;6.32;2.38;;;25.20;48.00;;;;;;5069512;28;20049;-77
2022/06/22 10:03:39;;;;;;;6.72;2.38;;;25.30;47.80;;;;;;5045026;28;20044;-80
2022/06/22 10:06:28;;;;;;;6.63;2.50;;;25.50;47.60;;;;;;5038133;28;20067;-78
2022/06/22 10:09:03;;;;;;;8.02;2.50;;;25.30;46.90;;;;;;5036444;28;20052;-77
2022/06/22 10:11:37;;;;;;;4.93;1.65;;;25.50;48.40;;;;;;5055525;28;20514;-78
2022/06/22 10:14:36;;;;;;;5.95;1.80;;;25.10;44.70;;;;;;5055038;28;20120;-76
2022/06/22 10:17:08;;;;;;;6.10;2.08;;;25.40;44.60;;;;;;5063089;28;20053;-77
2022/06/22 10:19:45;;;;;;;7.38;2.50;;;25.40;45.80;;;;;;5053472;28;20041;-77
2022/06/22 10:22:25;;;;;;;6.05;2.30;;;25.10;46.80;;;;;;5036351;28;20045;-76
2022/06/22 10:25:09;;;;;;;6.03;2.08;;;25.40;46.80;;;;;;5018642;28;20110;-76
2022/06/22 10:28:02;;;;;;;6.68;2.28;;;25.40;47.40;;;;;;5052693;28;20382;-77
2022/06/22 10:30:45;;;;;;;6.78;2.17;;;25.50;46.60;;;;;;5060186;28;20056;-77
2022/06/22 10:33:37;;;;;;;5.13;1.77;;;25.50;47.80;;;;;;5057311;28;20091;-80
2022/06/22 10:36:24;;;;;;;5.90;1.80;;;25.90;43.80;;;;;;5070921;28;20045;-77
2022/06/22 10:39:07;;;;;;;6.05;1.67;;;25.80;45.00;;;;;;5059474;28;20041;-76
2022/06/22 10:45:09;;;;;;;5.70;1.98;;;25.90;45.00;;;;;;5053709;28;20157;-77
2022/06/22 10:48:11;;;;;;;6.28;2.10;;;26.00;40.50;;;;;;5054696;28;20135;-77
2022/06/22 10:51:15;;;;;;;5.57;2.10;;;25.60;43.60;;;;;;5068349;28;20045;-77
2022/06/22 10:54:08;;;;;;;5.70;2.20;;;25.10;42.10;;;;;;5017345;28;20144;-75
2022/06/22 10:56:58;;;;;;;5.90;1.80;;;25.30;42.80;;;;;;5063080;28;20056;-80
2022/06/22 10:59:40;;;;;;;5.28;1.80;;;25.40;42.00;;;;;;5043548;28;20049;-77
2022/06/22 11:02:30;;;;;;;4.90;1.70;;;25.20;41.60;;;;;;5048191;28;20096;-76
2022/06/22 11:05:22;;;;;;;6.65;2.00;;;25.40;40.90;;;;;;5064326;28;20052;-76
2022/06/22 11:08:06;;;;;;;5.13;1.80;;;25.50;42.60;;;;;;5045698;28;20053;-77
2022/06/22 11:10:51;;;;;;;6.07;1.75;;;25.70;41.40;;;;;;5053885;28;20060;-77
2022/06/22 11:13:35;;;;;;;5.53;1.58;;;25.80;38.50;;;;;;5073546;28;20082;-77
2022/06/22 11:16:14;;;;;;;6.20;1.90;;;26.00;40.70;;;;;;5040828;28;20075;-77
2022/06/22 11:19:07;;;;;;;4.70;2.00;;;26.10;40.40;;;;;;5038645;28;20052;-76
2022/06/22 11:21:57;;;;;;;5.63;2.00;;;25.60;42.90;;;;;;5054241;28;20045;-77
2022/06/22 11:24:50;;;;;;;5.40;1.83;;;25.80;44.90;;;;;;5035176;28;20037;-77
2022/06/22 11:30:51;;;;;;;5.05;1.98;;;26.20;41.70;;;;;;5053612;28;20115;-78
2022/06/22 11:33:35;;;;;;;5.57;2.15;;;26.10;43.50;;;;;;5043791;28;20044;-78
2022/06/22 11:36:22;;;;;;;6.75;2.20;;;26.20;43.30;;;;;;5062393;28;20076;-75
2022/06/22 11:39:25;;;;;;;6.75;2.20;;;25.80;40.60;;;;;;5047758;28;20045;-76
2022/06/22 11:42:15;;;;;;;6.32;2.05;;;25.90;41.90;;;;;;5053090;28;20045;-76
2022/06/22 11:48:26;;;;;;;4.45;1.70;;;25.90;43.60;;;;;;5060959;28;20121;-77
2022/06/22 11:51:11;;;;;;;6.10;1.77;;;26.30;40.10;;;;;;5034089;28;20053;-77
2022/06/22 11:53:43;;;;;;;5.45;1.80;;;25.80;41.10;;;;;;5039156;28;20091;-76
2022/06/22 11:57:00;;;;;;;4.53;1.75;;;25.90;41.50;;;;;;5037528;28;20052;-77
2022/06/22 11:59:44;;;;;;;5.57;1.80;;;25.40;42.30;;;;;;5042634;28;20095;-76
2022/06/22 12:02:47;;;;;;;6.50;1.90;;;25.70;42.20;;;;;;5050713;28;20052;-77
2022/06/22 12:05:35;;;;;;;5.45;1.60;;;25.80;42.00;;;;;;5053620;28;20435;-77
2022/06/22 12:08:26;;;;;;;5.05;1.60;;;25.80;42.30;;;;;;5051557;28;20045;-77
2022/06/22 12:11:20;;;;;;;4.60;1.67;;;26.00;42.50;;;;;;5026379;28;20055;-78
2022/06/22 12:16:55;;;;;;;4.47;1.48;;;26.00;39.20;;;;;;5055204;28;20118;-76
2022/06/22 12:19:33;;;;;;;4.93;1.35;;;26.00;39.10;;;;;;5034689;28;20067;-77
2022/06/22 12:22:16;;;;;;;4.10;1.40;;;26.40;39.70;;;;;;5052443;28;20052;-76
2022/06/22 12:24:55;;;;;;;5.22;1.70;;;26.00;38.40;;;;;;5046948;28;20535;-78
2022/06/22 12:27:31;;;;;;;6.95;1.90;;;26.10;40.00;;;;;;5034684;28;20045;-79
2022/06/22 12:30:16;;;;;;;5.13;1.60;;;26.10;39.20;;;;;;5035507;28;20075;-76
2022/06/22 12:32:46;;;;;;;5.72;1.60;;;26.00;39.80;;;;;;5070465;28;20052;-78
2022/06/22 12:35:23;;;;;;;5.00;1.50;;;26.20;38.70;;;;;;5054867;28;20135;-77
2022/06/22 12:37:58;;;;;;;5.55;1.70;;;26.30;38.50;;;;;;5067057;28;20126;-77
2022/06/22 12:40:33;;;;;;;5.20;1.60;;;26.40;39.80;;;;;;5048761;28;20041;-80
2022/06/22 12:43:32;;;;;;;5.53;1.45;;;26.40;39.40;;;;;;5046856;28;20048;-78
2022/06/22 12:46:14;;;;;;;5.20;1.67;;;26.10;39.20;;;;;;5043149;28;20113;-77
2022/06/22 12:49:15;;;;;;;4.93;1.70;;;26.10;40.40;;;;;;5040153;28;20548;-79
2022/06/22 12:52:19;;;;;;;3.63;1.42;;;26.20;39.80;;;;;;5010225;28;20571;-78
2022/06/22 12:55:08;;;;;;;4.10;1.60;;;26.00;39.00;;;;;;5008563;28;20402;-80
2022/06/22 12:58:15;;;;;;;5.38;1.60;;;26.00;39.40;;;;;;5040588;28;20075;-79
2022/06/22 13:00:42;;;;;;;5.38;1.50;;;26.10;40.00;;;;;;5033647;28;20049;-81
2022/06/22 13:03:27;;;;;;;4.43;1.65;;;26.10;40.00;;;;;;5034931;28;20052;-80
2022/06/22 13:05:53;;;;;;;4.75;1.50;;;25.80;38.90;;;;;;5034641;28;20049;-79
2022/06/22 13:08:22;;;;;;;4.65;1.60;;;26.30;39.10;;;;;;5032887;28;20048;-79
2022/06/22 13:11:00;;;;;;;5.05;1.70;;;26.40;40.00;;;;;;5039342;28;20510;-79
2022/06/22 13:13:44;;;;;;;5.50;1.80;;;26.60;39.50;;;;;;5065242;28;20490;-79
2022/06/22 13:16:18;;;;;;;5.88;1.70;;;26.60;40.10;;;;;;5052363;28;20041;-78
2022/06/22 13:19:37;;;;;;;5.75;1.70;;;26.50;40.60;;;;;;5053656;28;20503;-77
2022/06/22 13:22:39;;;;;;;4.60;1.58;;;26.40;40.90;;;;;;4954574;28;20051;-81
2022/06/22 13:25:22;;;;;;;6.90;1.50;;;26.30;39.60;;;;;;4972197;28;20057;-81
2022/06/22 13:28:08;;;;;;;4.72;1.55;;;26.30;40.00;;;;;;5047311;28;20056;-77
2022/06/22 13:30:39;;;;;;;4.70;1.60;;;26.30;39.70;;;;;;5040369;28;20057;-78
2022/06/22 13:33:37;;;;;;;4.90;1.63;;;26.60;39.50;;;;;;5045447;28;20044;-78
2022/06/22 13:36:24;;;;;;;6.28;1.88;;;26.20;39.60;;;;;;5040547;28;20041;-76
2022/06/22 13:39:11;;;;;;;5.15;2.15;;;26.30;39.80;;;;;;5042787;28;20074;-79
2022/06/22 13:41:44;;;;;;;5.53;1.90;;;26.50;40.70;;;;;;5075364;28;20048;-80
2022/06/22 13:44:40;;;;;;;5.88;2.20;;;26.50;41.90;;;;;;5051195;28;20492;-80
2022/06/22 13:47:30;;;;;;;6.72;2.20;;;26.50;42.60;;;;;;5073926;28;20044;-79
2022/06/22 13:53:19;;;;;;;5.28;2.00;;;26.50;44.00;;;;;;5005762;28;20049;-78
2022/06/22 13:55:54;;;;;;;5.65;2.10;;;26.30;44.50;;;;;;5018444;28;20056;-79
2022/06/22 13:58:23;;;;;;;6.38;2.00;;;26.30;43.90;;;;;;5072289;28;20103;-80
2022/06/22 14:01:05;;;;;;;5.80;2.03;;;26.30;43.00;;;;;;5053913;28;20048;-80
2022/06/22 14:04:00;;;;;;;5.20;2.05;;;26.10;44.80;;;;;;5055648;28;20084;-80
2022/06/22 14:06:38;;;;;;;7.53;2.20;;;26.30;45.10;;;;;;5048924;28;20582;-75
2022/06/22 14:09:23;;;;;;;7.57;2.20;;;26.30;44.80;;;;;;5036642;28;20119;-78
2022/06/22 14:12:02;;;;;;;7.88;2.08;;;26.40;44.30;;;;;;5055623;28;20484;-79
2022/06/22 14:14:36;;;;;;;5.47;1.98;;;26.30;43.90;;;;;;5062278;28;20541;-74